Time,TemperatureF,DewpointF,PressureIn,WindDirection,WindDirectionDegrees,WindSpeedMPH,WindSpeedGustMPH,Humidity,HourlyPrecipIn,Conditions,Clouds,dailyrainin,SoftwareType,DateUTC
2013-08-27 00:01:00,73.9,48.1,29.06,SW,225,0.0,0.0,40,0.00,,---,0.00,VWS V13.01,2013-08-27 04:01:00,
2013-08-27 00:03:00,73.9,48.1,29.03,SW,225,0.0,0.0,40,0.00,,---,0.00,VWS V13.01,2013-08-27 04:03:00,
2013-08-27 00:04:00,73.9,48.1,29.03,SW,225,0.0,0.0,40,0.00,,---,0.00,VWS V13.01,2013-08-27 04:04:00,
2013-08-27 00:16:00,74.5,47.2,29.03,SW,225,0.0,0.0,38,0.00,,---,0.00,VWS V13.01,2013-08-27 04:16:00,
2013-08-27 00:17:00,74.5,47.2,29.03,SW,225,0.0,0.0,38,0.00,,---,0.00,VWS V13.01,2013-08-27 04:17:00,
2013-08-27 00:22:00,74.5,47.2,29.03,SW,225,0.0,0.0,38,0.00,,---,0.00,VWS V13.01,2013-08-27 04:22:00,
2013-08-27 00:27:00,74.5,47.2,29.03,SW,225,0.0,0.0,38,0.00,,---,0.00,VWS V13.01,2013-08-27 04:27:00,
2013-08-27 00:32:00,74.5,47.2,29.03,South,180,0.0,0.0,38,0.00,,---,0.00,VWS V13.01,2013-08-27 04:32:00,
2013-08-27 00:37:00,74.5,47.2,29.03,South,180,0.0,0.0,38,0.00,,---,0.00,VWS V13.01,2013-08-27 04:37:00,
2013-08-27 00:42:00,74.7,46.7,29.03,South,180,0.0,0.0,37,0.00,,---,0.00,VWS V13.01,2013-08-27 04:42:00,
2013-08-27 00:47:00,74.8,47.6,29.03,South,180,0.0,0.0,38,0.00,,---,0.00,VWS V13.01,2013-08-27 04:47:00,
2013-08-27 00:52:00,74.7,47.4,29.03,South,180,0.0,0.0,38,0.00,,---,0.00,VWS V13.01,2013-08-27 04:52:00,
2013-08-27 00:57:00,74.7,46.7,29.03,South,180,0.0,0.0,37,0.00,,---,0.00,VWS V13.01,2013-08-27 04:57:00,
2013-08-27 01:02:00,74.8,46.8,29.03,SW,225,0.0,0.0,37,0.00,,---,0.00,VWS V13.01,2013-08-27 05:02:00,
2013-08-27 01:07:00,74.8,46.8,29.03,SW,225,0.0,0.0,37,0.00,,---,0.00,VWS V13.01,2013-08-27 05:07:00,
2013-08-27 01:12:00,74.7,46.7,29.03,SSW,202,0.0,0.0,37,0.00,,---,0.00,VWS V13.01,2013-08-27 05:12:00,
2013-08-27 01:17:00,74.7,46.7,29.03,SSW,202,0.0,0.0,37,0.00,,---,0.00,VWS V13.01,2013-08-27 05:17:00,
2013-08-27 01:22:00,74.7,46.7,29.03,SSW,202,0.0,0.0,37,0.00,,---,0.00,VWS V13.01,2013-08-27 05:22:00,
2013-08-27 01:27:00,74.7,48.1,29.03,SSW,202,0.0,0.0,39,0.00,,---,0.00,VWS V13.01,2013-08-27 05:27:00,
2013-08-27 01:33:00,74.1,47.6,29.03,SSW,202,0.0,0.0,39,0.00,,---,0.00,VWS V13.01,2013-08-27 05:33:00,
2013-08-27 01:38:00,74.3,47.1,29.03,South,180,0.0,0.0,38,0.00,,---,0.00,VWS V13.01,2013-08-27 05:38:00,
2013-08-27 01:43:00,74.5,47.2,29.03,SSW,202,0.0,0.0,38,0.00,,---,0.00,VWS V13.01,2013-08-27 05:43:00,
2013-08-27 01:48:00,74.5,47.9,29.03,SSW,202,0.0,0.0,39,0.00,,---,0.00,VWS V13.01,2013-08-27 05:48:00,
2013-08-27 01:53:00,74.5,47.2,29.03,SSW,202,0.0,0.0,38,0.00,,---,0.00,VWS V13.01,2013-08-27 05:53:00,
2013-08-27 01:58:00,74.7,47.4,29.03,SSW,202,0.0,0.0,38,0.00,,---,0.00,VWS V13.01,2013-08-27 05:58:00,
2013-08-27 02:03:00,74.5,47.9,29.00,South,180,0.0,0.0,39,0.00,,---,0.00,VWS V13.01,2013-08-27 06:03:00,
2013-08-27 02:08:00,74.5,47.9,29.00,South,180,0.0,0.0,39,0.00,,---,0.00,VWS V13.01,2013-08-27 06:08:00,
2013-08-27 02:13:00,74.3,48.4,29.00,South,180,0.0,0.0,40,0.00,,---,0.00,VWS V13.01,2013-08-27 06:13:00,
2013-08-27 02:18:00,74.3,48.4,29.00,West,270,0.0,0.0,40,0.00,,---,0.00,VWS V13.01,2013-08-27 06:18:00,
2013-08-27 02:23:00,74.1,48.9,29.00,SW,225,0.0,0.0,41,0.00,,---,0.00,VWS V13.01,2013-08-27 06:23:00,
2013-08-27 02:28:00,73.9,49.4,29.00,South,180,0.0,0.0,42,0.00,,---,0.00,VWS V13.01,2013-08-27 06:28:00,
2013-08-27 02:33:00,73.8,49.3,29.03,South,180,0.0,0.0,42,0.00,,---,0.00,VWS V13.01,2013-08-27 06:33:00,
2013-08-27 02:38:00,74.1,49.6,29.03,SE,135,0.0,0.0,42,0.00,,---,0.00,VWS V13.01,2013-08-27 06:38:00,
2013-08-27 02:43:00,73.8,49.9,29.03,SE,135,0.0,0.0,43,0.00,,---,0.00,VWS V13.01,2013-08-27 06:43:00,
2013-08-27 02:48:00,73.6,50.3,29.00,SE,135,0.0,0.0,44,0.00,,---,0.00,VWS V13.01,2013-08-27 06:48:00,
2013-08-27 02:53:00,72.3,51.5,29.00,SE,135,0.0,0.0,48,0.00,,---,0.00,VWS V13.01,2013-08-27 06:53:00,
2013-08-27 02:58:00,72.1,51.9,29.00,South,180,0.0,0.0,49,0.00,,---,0.00,VWS V13.01,2013-08-27 06:58:00,
2013-08-27 03:03:00,72.5,51.2,29.00,SW,225,0.0,0.0,47,0.00,,---,0.00,VWS V13.01,2013-08-27 07:03:00,
2013-08-27 03:08:00,72.5,51.2,29.00,SW,225,0.0,0.0,47,0.00,,---,0.00,VWS V13.01,2013-08-27 07:08:00,
2013-08-27 03:13:00,73.2,51.2,29.00,SW,225,0.0,0.0,46,0.00,,---,0.00,VWS V13.01,2013-08-27 07:13:00,
2013-08-27 03:18:00,73.4,51.4,29.03,SW,225,0.0,0.0,46,0.00,,---,0.00,VWS V13.01,2013-08-27 07:18:00,
2013-08-27 03:23:00,73.4,51.4,29.03,SW,225,0.0,0.0,46,0.00,,---,0.00,VWS V13.01,2013-08-27 07:23:00,
2013-08-27 03:28:00,72.9,51.5,29.03,SW,225,0.0,0.0,47,0.00,,---,0.00,VWS V13.01,2013-08-27 07:28:00,
2013-08-27 03:34:00,73.2,51.2,29.00,SW,225,0.0,0.0,46,0.00,,---,0.00,VWS V13.01,2013-08-27 07:34:00,
2013-08-27 03:39:00,72.9,52.6,29.00,SW,225,0.0,0.0,49,0.00,,---,0.00,VWS V13.01,2013-08-27 07:39:00,
2013-08-27 03:44:00,72.9,52.6,29.00,SW,225,0.0,0.0,49,0.00,,---,0.00,VWS V13.01,2013-08-27 07:44:00,
2013-08-27 03:49:00,72.0,52.9,29.00,SW,225,0.0,0.0,51,0.00,,---,0.00,VWS V13.01,2013-08-27 07:49:00,
2013-08-27 03:54:00,72.1,52.5,29.00,SW,225,0.0,0.0,50,0.00,,---,0.00,VWS V13.01,2013-08-27 07:54:00,
2013-08-27 03:59:00,73.0,52.2,29.00,SW,225,0.0,0.0,48,0.00,,---,0.00,VWS V13.01,2013-08-27 07:59:00,
2013-08-27 04:04:00,73.4,51.4,29.00,SW,225,0.0,0.0,46,0.00,,---,0.00,VWS V13.01,2013-08-27 08:04:00,
2013-08-27 04:09:00,73.6,51.5,29.00,SW,225,0.0,0.0,46,0.00,,---,0.00,VWS V13.01,2013-08-27 08:09:00,
2013-08-27 04:14:00,73.0,51.6,29.00,SW,225,0.0,0.0,47,0.00,,---,0.00,VWS V13.01,2013-08-27 08:14:00,
2013-08-27 04:19:00,72.3,52.1,29.00,SW,225,0.0,0.0,49,0.00,,---,0.00,VWS V13.01,2013-08-27 08:19:00,
2013-08-27 04:24:00,71.6,53.1,29.00,SW,225,0.0,0.0,52,0.00,,---,0.00,VWS V13.01,2013-08-27 08:24:00,
2013-08-27 04:29:00,71.2,53.8,29.00,SW,225,0.0,0.0,54,0.00,,---,0.00,VWS V13.01,2013-08-27 08:29:00,
2013-08-27 04:34:00,70.9,53.9,29.00,SW,225,0.0,0.0,55,0.00,,---,0.00,VWS V13.01,2013-08-27 08:34:00,
2013-08-27 04:39:00,71.4,54.4,29.00,South,180,0.0,0.0,55,0.00,,---,0.00,VWS V13.01,2013-08-27 08:39:00,
2013-08-27 04:44:00,72.7,53.5,29.00,South,180,0.0,0.0,51,0.00,,---,0.00,VWS V13.01,2013-08-27 08:44:00,
2013-08-27 04:49:00,73.0,53.3,29.00,SSW,202,0.0,0.0,50,0.00,,---,0.00,VWS V13.01,2013-08-27 08:49:00,
2013-08-27 04:54:00,73.4,52.5,29.00,SSW,202,0.0,0.0,48,0.00,,---,0.00,VWS V13.01,2013-08-27 08:54:00,
2013-08-27 04:59:00,73.8,52.3,29.00,SSW,202,0.0,0.0,47,0.00,,---,0.00,VWS V13.01,2013-08-27 08:59:00,
2013-08-27 05:04:00,73.9,51.9,29.00,SSW,202,0.0,0.0,46,0.00,,---,0.00,VWS V13.01,2013-08-27 09:04:00,
2013-08-27 05:09:00,73.4,52.5,29.00,SSW,202,0.0,0.0,48,0.00,,---,0.00,VWS V13.01,2013-08-27 09:09:00,
2013-08-27 05:14:00,73.2,52.9,29.00,SSW,202,0.0,0.0,49,0.00,,---,0.00,VWS V13.01,2013-08-27 09:14:00,
2013-08-27 05:19:00,73.2,52.9,29.00,SSW,202,0.0,0.0,49,0.00,,---,0.00,VWS V13.01,2013-08-27 09:19:00,
2013-08-27 05:24:00,73.2,52.9,29.00,SSW,202,0.0,0.0,49,0.00,,---,0.00,VWS V13.01,2013-08-27 09:24:00,
2013-08-27 05:29:00,72.5,53.4,29.00,SW,225,0.0,0.0,51,0.00,,---,0.00,VWS V13.01,2013-08-27 09:29:00,
2013-08-27 05:34:00,72.3,53.7,29.00,SW,225,0.0,0.0,52,0.00,,---,0.00,VWS V13.01,2013-08-27 09:34:00,
2013-08-27 05:39:00,72.1,54.1,29.00,SW,225,0.0,0.0,53,0.00,,---,0.00,VWS V13.01,2013-08-27 09:39:00,
2013-08-27 05:45:00,72.1,54.1,29.00,SW,225,0.0,0.0,53,0.00,,---,0.00,VWS V13.01,2013-08-27 09:45:00,
2013-08-27 05:50:00,71.6,55.1,29.00,SW,225,0.0,0.0,56,0.00,,---,0.00,VWS V13.01,2013-08-27 09:50:00,
2013-08-27 05:55:00,71.4,55.4,29.00,SW,225,0.0,0.0,57,0.00,,---,0.00,VWS V13.01,2013-08-27 09:55:00,
2013-08-27 06:00:00,71.4,55.9,29.00,SW,225,0.0,0.0,58,0.00,,---,0.00,VWS V13.01,2013-08-27 10:00:00,
2013-08-27 06:05:00,71.4,55.9,29.00,SW,225,0.0,0.0,58,0.00,,---,0.00,VWS V13.01,2013-08-27 10:05:00,
2013-08-27 06:10:00,71.4,55.9,29.00,South,180,0.0,0.0,58,0.00,,---,0.00,VWS V13.01,2013-08-27 10:10:00,
2013-08-27 06:15:00,71.4,55.9,29.00,South,180,0.0,0.0,58,0.00,,---,0.00,VWS V13.01,2013-08-27 10:15:00,
2013-08-27 06:20:00,72.0,55.9,29.00,South,180,0.0,0.0,57,0.00,,---,0.00,VWS V13.01,2013-08-27 10:20:00,
2013-08-27 06:25:00,72.0,55.9,29.00,South,180,0.0,0.0,57,0.00,,---,0.00,VWS V13.01,2013-08-27 10:25:00,
2013-08-27 06:30:00,72.0,55.9,29.00,South,180,0.0,0.0,57,0.00,,---,0.00,VWS V13.01,2013-08-27 10:30:00,
2013-08-27 06:35:00,71.8,55.8,29.00,South,180,0.0,0.0,57,0.00,,---,0.00,VWS V13.01,2013-08-27 10:35:00,
2013-08-27 06:40:00,71.8,56.2,29.00,South,180,0.0,0.0,58,0.00,,---,0.00,VWS V13.01,2013-08-27 10:40:00,
2013-08-27 06:45:00,72.0,55.4,29.00,South,180,0.0,0.0,56,0.00,,---,0.00,VWS V13.01,2013-08-27 10:45:00,
2013-08-27 06:50:00,72.1,55.6,29.00,South,180,0.0,0.0,56,0.00,,---,0.00,VWS V13.01,2013-08-27 10:50:00,
2013-08-27 06:55:00,72.1,56.1,29.00,South,180,0.0,0.0,57,0.00,,---,0.00,VWS V13.01,2013-08-27 10:55:00,
2013-08-27 07:00:00,71.8,56.2,29.00,South,180,0.0,0.0,58,0.00,,---,0.00,VWS V13.01,2013-08-27 11:00:00,
2013-08-27 07:05:00,71.6,56.5,29.00,South,180,0.0,0.0,59,0.00,,---,0.00,VWS V13.01,2013-08-27 11:05:00,
2013-08-27 07:10:00,71.4,56.8,29.00,South,180,0.0,0.0,60,0.00,,---,0.00,VWS V13.01,2013-08-27 11:10:00,
2013-08-27 07:15:00,71.2,57.1,29.00,South,180,0.0,0.0,61,0.00,,---,0.00,VWS V13.01,2013-08-27 11:15:00,
2013-08-27 07:20:00,71.1,57.4,29.00,South,180,0.0,0.0,62,0.00,,---,0.00,VWS V13.01,2013-08-27 11:20:00,
2013-08-27 07:25:00,71.1,57.4,29.00,South,180,0.0,0.0,62,0.00,,---,0.00,VWS V13.01,2013-08-27 11:25:00,
2013-08-27 07:30:00,71.2,57.6,29.00,South,180,0.0,0.0,62,0.00,,---,0.00,VWS V13.01,2013-08-27 11:30:00,
2013-08-27 07:35:00,71.2,57.6,29.00,South,180,0.0,0.0,62,0.00,,---,0.00,VWS V13.01,2013-08-27 11:35:00,
2013-08-27 07:40:00,71.2,57.6,29.00,South,180,0.0,0.0,62,0.00,,---,0.00,VWS V13.01,2013-08-27 11:40:00,
2013-08-27 07:46:00,71.8,57.6,29.00,South,180,0.0,0.0,61,0.00,,---,0.00,VWS V13.01,2013-08-27 11:46:00,
2013-08-27 07:51:00,72.1,58.0,29.00,South,180,0.0,0.0,61,0.00,,---,0.00,VWS V13.01,2013-08-27 11:51:00,
2013-08-27 07:56:00,72.5,57.4,29.00,South,180,0.0,0.0,59,0.00,,---,0.00,VWS V13.01,2013-08-27 11:56:00,
2013-08-27 08:01:00,72.5,57.4,29.00,South,180,0.0,0.0,59,0.00,,---,0.00,VWS V13.01,2013-08-27 12:01:00,
2013-08-27 08:06:00,72.3,57.7,29.00,South,180,0.0,0.0,60,0.00,,---,0.00,VWS V13.01,2013-08-27 12:06:00,
2013-08-27 08:11:00,72.9,57.7,29.00,SSW,202,0.0,0.0,59,0.00,,---,0.00,VWS V13.01,2013-08-27 12:11:00,
2013-08-27 08:16:00,73.0,56.9,29.00,SSW,202,0.0,0.0,57,0.00,,---,0.00,VWS V13.01,2013-08-27 12:16:00,
2013-08-27 08:21:00,73.6,55.9,29.00,SSW,202,0.0,0.0,54,0.00,,---,0.00,VWS V13.01,2013-08-27 12:21:00,
2013-08-27 08:26:00,74.1,55.9,29.00,SSW,202,0.0,0.0,53,0.00,,---,0.00,VWS V13.01,2013-08-27 12:26:00,
2013-08-27 08:31:00,74.1,55.4,29.00,SSW,202,0.0,0.0,52,0.00,,---,0.00,VWS V13.01,2013-08-27 12:31:00,
2013-08-27 08:36:00,74.5,55.2,29.00,South,180,0.0,0.0,51,0.00,,---,0.00,VWS V13.01,2013-08-27 12:36:00,
2013-08-27 08:41:00,74.8,55.0,29.00,South,180,0.0,0.0,50,0.00,,---,0.00,VWS V13.01,2013-08-27 12:41:00,
2013-08-27 08:46:00,75.0,55.1,29.00,South,180,0.0,0.0,50,0.00,,---,0.00,VWS V13.01,2013-08-27 12:46:00,
2013-08-27 08:51:00,75.2,54.8,29.00,WSW,248,0.0,0.0,49,0.00,,---,0.00,VWS V13.01,2013-08-27 12:51:00,
2013-08-27 08:56:00,75.4,54.9,29.00,WSW,248,0.0,0.0,49,0.00,,---,0.00,VWS V13.01,2013-08-27 12:56:00,
2013-08-27 09:01:00,75.6,55.1,29.00,South,180,0.0,0.0,49,0.00,,---,0.00,VWS V13.01,2013-08-27 13:01:00,
2013-08-27 09:06:00,75.6,55.1,29.00,South,180,0.0,0.0,49,0.00,,---,0.00,VWS V13.01,2013-08-27 13:06:00,
2013-08-27 09:11:00,75.6,55.1,29.00,South,180,0.0,0.0,49,0.00,,---,0.00,VWS V13.01,2013-08-27 13:11:00,
2013-08-27 09:16:00,75.7,54.7,29.00,South,180,0.0,0.0,48,0.00,,---,0.00,VWS V13.01,2013-08-27 13:16:00,
2013-08-27 09:21:00,75.7,55.2,29.00,South,180,0.0,0.0,49,0.00,,---,0.00,VWS V13.01,2013-08-27 13:21:00,
2013-08-27 09:26:00,75.7,55.2,29.00,SSW,202,0.0,0.0,49,0.00,,---,0.00,VWS V13.01,2013-08-27 13:26:00,
2013-08-27 09:31:00,75.7,55.2,29.00,SSW,202,0.0,0.0,49,0.00,,---,0.00,VWS V13.01,2013-08-27 13:31:00,
2013-08-27 09:36:00,76.1,55.6,29.03,SSW,202,0.0,0.0,49,0.00,,---,0.00,VWS V13.01,2013-08-27 13:36:00,
2013-08-27 09:42:00,76.5,55.9,29.03,SSW,202,0.0,0.0,49,0.00,,---,0.00,VWS V13.01,2013-08-27 13:42:00,
2013-08-27 09:47:00,76.5,55.9,29.03,SSW,202,0.0,0.0,49,0.00,,---,0.00,VWS V13.01,2013-08-27 13:47:00,
2013-08-27 09:52:00,77.2,55.4,29.00,SSW,202,0.0,0.0,47,0.00,,---,0.00,VWS V13.01,2013-08-27 13:52:00,
2013-08-27 09:57:00,77.4,55.0,29.00,SSW,202,0.0,0.0,46,0.00,,---,0.00,VWS V13.01,2013-08-27 13:57:00,
2013-08-27 10:02:00,77.4,55.0,29.00,SSW,202,0.0,0.0,46,0.00,,---,0.00,VWS V13.01,2013-08-27 14:02:00,
2013-08-27 10:07:00,77.0,54.7,29.00,SSW,202,0.0,0.0,46,0.00,,---,0.00,VWS V13.01,2013-08-27 14:07:00,
2013-08-27 10:12:00,76.8,55.1,29.00,SSW,202,0.0,0.0,47,0.00,,---,0.00,VWS V13.01,2013-08-27 14:12:00,
2013-08-27 10:17:00,77.0,55.2,29.03,SSW,202,0.0,0.0,47,0.00,,---,0.00,VWS V13.01,2013-08-27 14:17:00,
2013-08-27 10:22:00,77.0,55.2,29.03,SSW,202,0.0,0.0,47,0.00,,---,0.00,VWS V13.01,2013-08-27 14:22:00,
2013-08-27 10:27:00,77.4,55.0,29.03,South,180,0.0,0.0,46,0.00,,---,0.00,VWS V13.01,2013-08-27 14:27:00,
2013-08-27 10:32:00,77.5,55.2,29.03,South,180,0.0,0.0,46,0.00,,---,0.00,VWS V13.01,2013-08-27 14:32:00,
2013-08-27 10:37:00,77.7,55.3,29.00,South,180,0.0,0.0,46,0.00,,---,0.00,VWS V13.01,2013-08-27 14:37:00,
2013-08-27 10:42:00,77.9,55.5,29.00,South,180,0.0,0.0,46,0.00,,---,0.00,VWS V13.01,2013-08-27 14:42:00,
2013-08-27 10:47:00,78.4,55.4,29.03,SW,225,0.0,0.0,45,0.00,,---,0.00,VWS V13.01,2013-08-27 14:47:00,
2013-08-27 10:52:00,78.4,55.4,29.03,SW,225,0.0,0.0,45,0.00,,---,0.00,VWS V13.01,2013-08-27 14:52:00,
2013-08-27 10:57:00,78.8,55.1,29.03,SW,225,0.0,0.0,44,0.00,,---,0.00,VWS V13.01,2013-08-27 14:57:00,
2013-08-27 11:02:00,79.0,54.6,29.00,SW,225,0.0,0.0,43,0.00,,---,0.00,VWS V13.01,2013-08-27 15:02:00,
2013-08-27 11:07:00,79.7,54.6,29.00,SW,225,0.0,0.0,42,0.00,,---,0.00,VWS V13.01,2013-08-27 15:07:00,
2013-08-27 11:12:00,79.9,54.8,29.00,SE,135,0.0,0.0,42,0.00,,---,0.00,VWS V13.01,2013-08-27 15:12:00,
2013-08-27 11:17:00,80.1,54.9,29.03,SE,135,0.0,0.0,42,0.00,,---,0.00,VWS V13.01,2013-08-27 15:17:00,
2013-08-27 11:22:00,80.1,54.9,29.03,SE,135,0.0,0.0,42,0.00,,---,0.00,VWS V13.01,2013-08-27 15:22:00,
2013-08-27 11:27:00,80.1,54.3,29.03,SSW,202,0.0,0.0,41,0.00,,---,0.00,VWS V13.01,2013-08-27 15:27:00,
2013-08-27 11:32:00,80.1,54.3,29.03,West,270,0.0,0.0,41,0.00,,---,0.00,VWS V13.01,2013-08-27 15:32:00,
2013-08-27 11:38:00,80.1,54.3,29.03,SW,225,0.0,0.0,41,0.00,,---,0.00,VWS V13.01,2013-08-27 15:38:00,
2013-08-27 11:43:00,80.1,54.3,29.03,SW,225,0.0,0.0,41,0.00,,---,0.00,VWS V13.01,2013-08-27 15:43:00,
2013-08-27 11:48:00,80.2,54.4,29.03,SW,225,0.0,0.0,41,0.00,,---,0.00,VWS V13.01,2013-08-27 15:48:00,
2013-08-27 11:53:00,80.6,54.1,29.03,SW,225,0.0,0.0,40,0.00,,---,0.00,VWS V13.01,2013-08-27 15:53:00,
2013-08-27 11:58:00,80.8,54.2,29.03,SW,225,0.0,0.0,40,0.00,,---,0.00,VWS V13.01,2013-08-27 15:58:00,
2013-08-27 12:03:00,80.8,53.5,29.03,SW,225,0.0,0.0,39,0.00,,---,0.00,VWS V13.01,2013-08-27 16:03:00,
2013-08-27 12:08:00,80.6,53.4,29.03,SW,225,0.0,0.0,39,0.00,,---,0.00,VWS V13.01,2013-08-27 16:08:00,
2013-08-27 12:13:00,81.1,54.5,29.03,SW,225,0.0,0.0,40,0.00,,---,0.00,VWS V13.01,2013-08-27 16:13:00,
2013-08-27 12:18:00,81.3,54.0,29.03,SW,225,0.0,0.0,39,0.00,,---,0.00,VWS V13.01,2013-08-27 16:18:00,
2013-08-27 12:23:00,81.7,54.3,29.03,SW,225,0.0,0.0,39,0.00,,---,0.00,VWS V13.01,2013-08-27 16:23:00,
2013-08-27 12:28:00,81.9,53.8,29.03,SW,225,0.0,0.0,38,0.00,,---,0.00,VWS V13.01,2013-08-27 16:28:00,
2013-08-27 12:33:00,81.9,53.1,29.00,SW,225,0.0,0.0,37,0.00,,---,0.00,VWS V13.01,2013-08-27 16:33:00,
2013-08-27 12:38:00,81.9,53.1,29.00,SW,225,0.0,0.0,37,0.00,,---,0.00,VWS V13.01,2013-08-27 16:38:00,
2013-08-27 12:43:00,81.5,52.7,29.00,SW,225,0.0,0.0,37,0.00,,---,0.00,VWS V13.01,2013-08-27 16:43:00,
2013-08-27 12:48:00,81.5,52.7,29.00,SSW,202,0.0,0.0,37,0.00,,---,0.00,VWS V13.01,2013-08-27 16:48:00,
2013-08-27 12:53:00,81.5,52.7,29.00,SW,225,0.0,0.0,37,0.00,,---,0.00,VWS V13.01,2013-08-27 16:53:00,
2013-08-27 12:58:00,80.6,52.7,29.00,SW,225,0.0,0.0,38,0.00,,---,0.00,VWS V13.01,2013-08-27 16:58:00,
2013-08-27 13:03:00,80.6,54.1,29.00,SW,225,0.0,0.0,40,0.00,,---,0.00,VWS V13.01,2013-08-27 17:03:00,
2013-08-27 13:08:00,80.8,54.2,29.00,SW,225,0.0,0.0,40,0.00,,---,0.00,VWS V13.01,2013-08-27 17:08:00,
2013-08-27 13:13:00,81.5,54.2,29.00,SW,225,0.0,0.0,39,0.00,,---,0.00,VWS V13.01,2013-08-27 17:13:00,
2013-08-27 13:18:00,81.5,54.2,29.00,SSW,202,0.0,0.0,39,0.00,,---,0.00,VWS V13.01,2013-08-27 17:18:00,
2013-08-27 13:23:00,82.9,54.0,29.00,SSW,202,0.0,0.0,37,0.00,,---,0.00,VWS V13.01,2013-08-27 17:23:00,
2013-08-27 13:28:00,83.7,53.9,29.00,SSW,202,0.0,0.0,36,0.00,,---,0.00,VWS V13.01,2013-08-27 17:28:00,
2013-08-27 13:34:00,84.0,52.7,29.00,SSW,202,0.0,0.0,34,0.00,,---,0.00,VWS V13.01,2013-08-27 17:34:00,
2013-08-27 13:39:00,83.8,51.7,29.00,South,180,0.0,0.0,33,0.00,,---,0.00,VWS V13.01,2013-08-27 17:39:00,
2013-08-27 13:44:00,83.3,51.2,29.00,SSW,202,0.0,0.0,33,0.00,,---,0.00,VWS V13.01,2013-08-27 17:44:00,
2013-08-27 13:49:00,82.2,51.9,29.00,SSW,202,0.0,0.0,35,0.00,,---,0.00,VWS V13.01,2013-08-27 17:49:00,
2013-08-27 13:54:00,81.7,52.2,29.00,SSW,202,0.0,0.0,36,0.00,,---,0.00,VWS V13.01,2013-08-27 17:54:00,
2013-08-27 13:59:00,81.5,53.5,29.00,SSW,202,0.0,0.0,38,0.00,,---,0.00,VWS V13.01,2013-08-27 17:59:00,
2013-08-27 14:04:00,81.9,53.1,29.00,SSW,202,0.0,0.0,37,0.00,,---,0.00,VWS V13.01,2013-08-27 18:04:00,
2013-08-27 14:09:00,82.4,52.8,29.00,SSW,202,0.0,0.0,36,0.00,,---,0.00,VWS V13.01,2013-08-27 18:09:00,
2013-08-27 14:14:00,82.4,52.8,29.00,SSW,202,0.0,0.0,36,0.00,,---,0.00,VWS V13.01,2013-08-27 18:14:00,
2013-08-27 14:19:00,82.4,53.5,29.00,SSW,202,0.0,0.0,37,0.00,,---,0.00,VWS V13.01,2013-08-27 18:19:00,
2013-08-27 14:24:00,82.2,54.1,29.00,SSW,202,0.0,0.0,38,0.00,,---,0.00,VWS V13.01,2013-08-27 18:24:00,
2013-08-27 14:29:00,82.0,53.2,29.00,SW,225,0.0,0.0,37,0.00,,---,0.00,VWS V13.01,2013-08-27 18:29:00,
2013-08-27 14:34:00,81.7,54.3,29.00,SW,225,0.0,0.0,39,0.00,,---,0.00,VWS V13.01,2013-08-27 18:34:00,
2013-08-27 14:39:00,81.7,54.3,29.00,South,180,0.0,0.0,39,0.00,,---,0.00,VWS V13.01,2013-08-27 18:39:00,
2013-08-27 14:44:00,81.7,54.3,29.00,SSW,202,0.0,0.0,39,0.00,,---,0.00,VWS V13.01,2013-08-27 18:44:00,
2013-08-27 14:49:00,80.8,54.2,29.00,South,180,0.0,0.0,40,0.00,,---,0.00,VWS V13.01,2013-08-27 18:49:00,
2013-08-27 14:54:00,80.2,54.4,29.00,South,180,0.0,0.0,41,0.00,,---,0.00,VWS V13.01,2013-08-27 18:54:00,
2013-08-27 14:59:00,80.1,54.9,29.00,South,180,0.0,0.0,42,0.00,,---,0.00,VWS V13.01,2013-08-27 18:59:00,
2013-08-27 15:04:00,80.4,55.2,28.97,South,180,0.0,0.0,42,0.00,,---,0.00,VWS V13.01,2013-08-27 19:04:00,
2013-08-27 15:09:00,80.8,54.9,28.97,South,180,0.0,0.0,41,0.00,,---,0.00,VWS V13.01,2013-08-27 19:09:00,
2013-08-27 15:14:00,80.8,54.9,28.97,South,180,0.0,0.0,41,0.00,,---,0.00,VWS V13.01,2013-08-27 19:14:00,
2013-08-27 15:19:00,82.4,55.7,28.97,South,180,0.0,0.0,40,0.00,,---,0.00,VWS V13.01,2013-08-27 19:19:00,
2013-08-27 15:24:00,82.8,54.6,28.97,South,180,0.0,0.0,38,0.00,,---,0.00,VWS V13.01,2013-08-27 19:24:00,
2013-08-27 15:29:00,82.6,53.7,28.97,SSW,202,0.0,0.0,37,0.00,,---,0.00,VWS V13.01,2013-08-27 19:29:00,
2013-08-27 15:35:00,81.5,52.7,28.97,SW,225,0.0,0.0,37,0.00,,---,0.00,VWS V13.01,2013-08-27 19:35:00,
2013-08-27 15:40:00,80.4,53.2,28.97,SW,225,0.0,0.0,39,0.00,,---,0.00,VWS V13.01,2013-08-27 19:40:00,
2013-08-27 15:45:00,79.7,53.9,28.97,SW,225,0.0,0.0,41,0.00,,---,0.00,VWS V13.01,2013-08-27 19:45:00,
2013-08-27 15:50:00,79.3,53.6,28.97,SW,225,0.0,0.0,41,0.00,,---,0.00,VWS V13.01,2013-08-27 19:50:00,
2013-08-27 15:55:00,79.0,54.6,28.97,SW,225,0.0,0.0,43,0.00,,---,0.00,VWS V13.01,2013-08-27 19:55:00,
2013-08-27 16:00:00,78.8,55.1,28.97,SW,225,0.0,0.0,44,0.00,,---,0.00,VWS V13.01,2013-08-27 20:00:00,
2013-08-27 16:05:00,78.8,55.7,28.97,SW,225,0.0,0.0,45,0.00,,---,0.00,VWS V13.01,2013-08-27 20:05:00,
2013-08-27 16:10:00,79.0,55.8,28.97,SW,225,0.0,0.0,45,0.00,,---,0.00,VWS V13.01,2013-08-27 20:10:00,
2013-08-27 16:15:00,79.2,56.0,28.97,SW,225,0.0,0.0,45,0.00,,---,0.00,VWS V13.01,2013-08-27 20:15:00,
2013-08-27 16:20:00,80.6,56.1,28.97,SW,225,0.0,0.0,43,0.00,,---,0.00,VWS V13.01,2013-08-27 20:20:00,
2013-08-27 16:25:00,82.2,56.2,28.97,SW,225,0.0,0.0,41,0.00,,---,0.00,VWS V13.01,2013-08-27 20:25:00,
2013-08-27 16:30:00,82.6,54.4,28.97,SW,225,0.0,0.0,38,0.00,,---,0.00,VWS V13.01,2013-08-27 20:30:00,
2013-08-27 16:35:00,82.0,54.0,28.97,SW,225,0.0,0.0,38,0.00,,---,0.00,VWS V13.01,2013-08-27 20:35:00,
2013-08-27 16:40:00,81.5,53.5,28.97,South,180,0.0,0.0,38,0.00,,---,0.00,VWS V13.01,2013-08-27 20:40:00,
2013-08-27 16:45:00,81.1,53.9,28.97,South,180,0.0,0.0,39,0.00,,---,0.00,VWS V13.01,2013-08-27 20:45:00,
2013-08-27 16:50:00,80.8,53.5,28.97,SW,225,0.0,0.0,39,0.00,,---,0.00,VWS V13.01,2013-08-27 20:50:00,
2013-08-27 16:55:00,81.0,54.4,28.97,SW,225,0.0,0.0,40,0.00,,---,0.00,VWS V13.01,2013-08-27 20:55:00,
2013-08-27 17:00:00,80.8,54.2,28.97,SW,225,0.0,0.0,40,0.00,,---,0.00,VWS V13.01,2013-08-27 21:00:00,
2013-08-27 17:06:00,81.1,53.9,28.97,West,270,0.0,0.0,39,0.00,,---,0.00,VWS V13.01,2013-08-27 21:06:00,
2013-08-27 17:11:00,81.0,53.7,28.97,West,270,0.0,0.0,39,0.00,,---,0.00,VWS V13.01,2013-08-27 21:11:00,
2013-08-27 17:16:00,80.8,52.8,28.97,South,180,0.0,0.0,38,0.00,,---,0.00,VWS V13.01,2013-08-27 21:16:00,
2013-08-27 17:21:00,80.6,53.4,28.97,South,180,0.0,0.0,39,0.00,,---,0.00,VWS V13.01,2013-08-27 21:21:00,
2013-08-27 17:26:00,80.2,53.8,28.97,South,180,0.0,0.0,40,0.00,,---,0.00,VWS V13.01,2013-08-27 21:26:00,
2013-08-27 17:31:00,80.2,53.1,28.97,South,180,0.0,0.0,39,0.00,,---,0.00,VWS V13.01,2013-08-27 21:31:00,
2013-08-27 17:36:00,80.2,53.8,28.97,South,180,0.0,0.0,40,0.00,,---,0.00,VWS V13.01,2013-08-27 21:36:00,
2013-08-27 17:41:00,80.2,53.8,28.97,South,180,0.0,0.0,40,0.00,,---,0.00,VWS V13.01,2013-08-27 21:41:00,
2013-08-27 17:46:00,80.6,53.4,28.97,South,180,0.0,0.0,39,0.00,,---,0.00,VWS V13.01,2013-08-27 21:46:00,
2013-08-27 17:51:00,81.0,53.7,28.94,South,180,0.0,0.0,39,0.00,,---,0.00,VWS V13.01,2013-08-27 21:51:00,
2013-08-27 17:56:00,81.0,53.0,28.94,South,180,0.0,0.0,38,0.00,,---,0.00,VWS V13.01,2013-08-27 21:56:00,
2013-08-27 18:01:00,80.8,53.5,28.94,SW,225,0.0,0.0,39,0.00,,---,0.00,VWS V13.01,2013-08-27 22:01:00,
2013-08-27 18:06:00,80.8,54.2,28.94,SW,225,0.0,0.0,40,0.00,,---,0.00,VWS V13.01,2013-08-27 22:06:00,
2013-08-27 18:07:00,80.8,54.2,28.94,SW,225,0.0,0.0,40,0.00,,---,0.00,VWS V13.01,2013-08-27 22:07:00,
2013-08-27 18:12:00,80.6,54.1,28.94,SSW,202,0.0,0.0,40,0.00,,---,0.00,VWS V13.01,2013-08-27 22:12:00,
2013-08-27 18:18:00,80.4,53.9,28.97,SSW,202,0.0,0.0,40,0.00,,---,0.00,VWS V13.01,2013-08-27 22:18:00,
2013-08-27 18:23:00,80.2,53.8,28.97,SSW,202,0.0,0.0,40,0.00,,---,0.00,VWS V13.01,2013-08-27 22:23:00,
2013-08-27 18:28:00,80.1,53.6,28.97,SSW,202,0.0,0.0,40,0.00,,---,0.00,VWS V13.01,2013-08-27 22:28:00,
2013-08-27 18:33:00,79.7,53.9,28.94,SSW,202,0.0,0.0,41,0.00,,---,0.00,VWS V13.01,2013-08-27 22:33:00,
2013-08-27 18:38:00,79.5,54.4,28.94,SSW,202,0.0,0.0,42,0.00,,---,0.00,VWS V13.01,2013-08-27 22:38:00,
2013-08-27 18:43:00,79.3,54.3,28.94,SSW,202,0.0,0.0,42,0.00,,---,0.00,VWS V13.01,2013-08-27 22:43:00,
2013-08-27 18:48:00,79.2,54.1,28.94,SSW,202,0.0,0.0,42,0.00,,---,0.00,VWS V13.01,2013-08-27 22:48:00,
2013-08-27 18:53:00,78.8,54.4,28.94,SSW,202,0.0,0.0,43,0.00,,---,0.00,VWS V13.01,2013-08-27 22:53:00,
2013-08-27 18:58:00,78.6,54.3,28.94,SSW,202,0.0,0.0,43,0.00,,---,0.00,VWS V13.01,2013-08-27 22:58:00,
2013-08-27 19:03:00,78.6,54.9,28.94,SSW,202,0.0,0.0,44,0.00,,---,0.00,VWS V13.01,2013-08-27 23:03:00,
2013-08-27 19:08:00,78.3,54.6,28.94,SSW,202,0.0,0.0,44,0.00,,---,0.00,VWS V13.01,2013-08-27 23:08:00,
2013-08-27 19:14:00,78.1,55.0,28.94,SSW,202,0.0,0.0,45,0.00,,---,0.00,VWS V13.01,2013-08-27 23:14:00,
2013-08-27 19:19:00,77.9,54.9,28.94,SSW,202,0.0,0.0,45,0.00,,---,0.00,VWS V13.01,2013-08-27 23:19:00,
2013-08-27 19:24:00,77.7,55.3,28.94,SSW,202,0.0,0.0,46,0.00,,---,0.00,VWS V13.01,2013-08-27 23:24:00,
2013-08-27 19:29:00,77.5,55.2,28.94,SSW,202,0.0,0.0,46,0.00,,---,0.00,VWS V13.01,2013-08-27 23:29:00,
2013-08-27 19:34:00,77.4,55.0,28.97,SSW,202,0.0,0.0,46,0.00,,---,0.00,VWS V13.01,2013-08-27 23:34:00,
2013-08-27 19:39:00,77.2,55.4,28.97,SSW,202,0.0,0.0,47,0.00,,---,0.00,VWS V13.01,2013-08-27 23:39:00,
2013-08-27 19:44:00,77.0,55.8,28.97,SSW,202,0.0,0.0,48,0.00,,---,0.00,VWS V13.01,2013-08-27 23:44:00,
2013-08-27 19:49:00,77.0,55.8,28.97,SSW,202,0.0,0.0,48,0.00,,---,0.00,VWS V13.01,2013-08-27 23:49:00,
2013-08-27 19:54:00,76.6,56.1,28.97,SSW,202,0.0,0.0,49,0.00,,---,0.00,VWS V13.01,2013-08-27 23:54:00,
2013-08-27 19:59:00,76.6,56.6,28.97,SSW,202,0.0,0.0,50,0.00,,---,0.00,VWS V13.01,2013-08-27 23:59:00,
2013-08-27 20:05:00,76.5,56.5,28.97,SSW,202,0.0,0.0,50,0.00,,---,0.00,VWS V13.01,2013-08-28 00:05:00,
2013-08-27 20:10:00,76.5,56.5,28.97,SSW,202,0.0,0.0,50,0.00,,---,0.00,VWS V13.01,2013-08-28 00:10:00,
2013-08-27 20:15:00,76.5,56.5,28.97,SSW,202,0.0,0.0,50,0.00,,---,0.00,VWS V13.01,2013-08-28 00:15:00,
2013-08-27 20:20:00,76.5,57.0,28.97,SSW,202,0.0,0.0,51,0.00,,---,0.00,VWS V13.01,2013-08-28 00:20:00,
2013-08-27 20:25:00,76.3,55.7,28.97,SW,225,0.0,0.0,49,0.00,,---,0.00,VWS V13.01,2013-08-28 00:25:00,
2013-08-27 20:30:00,76.5,55.9,28.97,SW,225,0.0,0.0,49,0.00,,---,0.00,VWS V13.01,2013-08-28 00:30:00,
2013-08-27 20:35:00,76.5,56.5,28.97,SW,225,0.0,0.0,50,0.00,,---,0.00,VWS V13.01,2013-08-28 00:35:00,
2013-08-27 20:40:00,76.5,56.5,28.97,SW,225,0.0,0.0,50,0.00,,---,0.00,VWS V13.01,2013-08-28 00:40:00,
2013-08-27 20:45:00,76.3,55.2,28.97,SW,225,0.0,0.0,48,0.00,,---,0.00,VWS V13.01,2013-08-28 00:45:00,
2013-08-27 20:50:00,76.3,55.2,28.97,SW,225,0.0,0.0,48,0.00,,---,0.00,VWS V13.01,2013-08-28 00:50:00,
2013-08-27 20:55:00,76.5,54.2,28.97,SW,225,0.0,0.0,46,0.00,,---,0.00,VWS V13.01,2013-08-28 00:55:00,
2013-08-27 21:00:00,76.3,54.0,28.97,SW,225,0.0,0.0,46,0.00,,---,0.00,VWS V13.01,2013-08-28 01:00:00,
2013-08-27 21:06:00,76.3,54.6,28.97,SW,225,0.0,0.0,47,0.00,,---,0.00,VWS V13.01,2013-08-28 01:06:00,
2013-08-27 21:11:00,76.3,54.6,28.97,SW,225,0.0,0.0,47,0.00,,---,0.00,VWS V13.01,2013-08-28 01:11:00,
2013-08-27 21:16:00,76.3,54.6,28.97,SW,225,0.0,0.0,47,0.00,,---,0.00,VWS V13.01,2013-08-28 01:16:00,
2013-08-27 21:21:00,75.4,57.1,28.97,SW,225,0.0,0.0,53,0.00,,---,0.00,VWS V13.01,2013-08-28 01:21:00,
2013-08-27 21:26:00,74.7,58.4,28.97,SW,225,0.0,0.0,57,0.00,,---,0.00,VWS V13.01,2013-08-28 01:26:00,
2013-08-27 21:31:00,74.5,57.8,28.97,SW,225,0.0,0.0,56,0.00,,---,0.00,VWS V13.01,2013-08-28 01:31:00,
2013-08-27 21:36:00,74.1,58.4,28.97,SW,225,0.0,0.0,58,0.00,,---,0.00,VWS V13.01,2013-08-28 01:36:00,
2013-08-27 21:41:00,73.9,58.7,28.97,SW,225,0.0,0.0,59,0.00,,---,0.00,VWS V13.01,2013-08-28 01:41:00,
2013-08-27 21:46:00,73.8,58.5,29.00,SW,225,0.0,0.0,59,0.00,,---,0.00,VWS V13.01,2013-08-28 01:46:00,
2013-08-27 21:51:00,73.4,58.7,29.00,SW,225,0.0,0.0,60,0.00,,---,0.00,VWS V13.01,2013-08-28 01:51:00,
2013-08-27 21:57:00,73.4,58.7,29.00,SW,225,0.0,0.0,60,0.00,,---,0.00,VWS V13.01,2013-08-28 01:57:00,
2013-08-27 22:02:00,73.2,58.5,28.97,SW,225,0.0,0.0,60,0.00,,---,0.00,VWS V13.01,2013-08-28 02:02:00,
2013-08-27 22:07:00,72.9,58.6,28.97,SW,225,0.0,0.0,61,0.00,,---,0.00,VWS V13.01,2013-08-28 02:07:00,
2013-08-27 22:12:00,72.9,58.6,28.97,SW,225,0.0,0.0,61,0.00,,---,0.00,VWS V13.01,2013-08-28 02:12:00,
2013-08-27 22:17:00,72.5,58.8,28.97,SW,225,0.0,0.0,62,0.00,,---,0.00,VWS V13.01,2013-08-28 02:17:00,
2013-08-27 22:22:00,72.5,58.8,28.97,SW,225,0.0,0.0,62,0.00,,---,0.00,VWS V13.01,2013-08-28 02:22:00,
2013-08-27 22:27:00,72.5,58.8,28.97,SW,225,0.0,0.0,62,0.00,,---,0.00,VWS V13.01,2013-08-28 02:27:00,
2013-08-27 22:32:00,72.3,58.6,28.97,SW,225,0.0,0.0,62,0.00,,---,0.00,VWS V13.01,2013-08-28 02:32:00,
2013-08-27 22:37:00,72.1,58.4,28.97,SW,225,0.0,0.0,62,0.00,,---,0.00,VWS V13.01,2013-08-28 02:37:00,
2013-08-27 22:42:00,72.1,58.9,28.97,SW,225,0.0,0.0,63,0.00,,---,0.00,VWS V13.01,2013-08-28 02:42:00,
2013-08-27 22:47:00,72.1,58.9,28.97,SW,225,0.0,0.0,63,0.00,,---,0.00,VWS V13.01,2013-08-28 02:47:00,
2013-08-27 22:52:00,72.0,58.2,28.97,SW,225,0.0,0.0,62,0.00,,---,0.00,VWS V13.01,2013-08-28 02:52:00,
2013-08-27 22:57:00,72.0,58.2,28.97,SW,225,0.0,0.0,62,0.00,,---,0.00,VWS V13.01,2013-08-28 02:57:00,
2013-08-27 23:02:00,72.0,58.2,28.97,SW,225,0.0,0.0,62,0.00,,---,0.00,VWS V13.01,2013-08-28 03:02:00,
2013-08-27 23:07:00,72.0,58.2,28.97,SW,225,0.0,0.0,62,0.00,,---,0.00,VWS V13.01,2013-08-28 03:07:00,
2013-08-27 23:13:00,72.0,58.2,28.97,SW,225,0.0,0.0,62,0.00,,---,0.00,VWS V13.01,2013-08-28 03:13:00,
2013-08-27 23:18:00,72.0,58.2,28.97,SW,225,0.0,0.0,62,0.00,,---,0.00,VWS V13.01,2013-08-28 03:18:00,
2013-08-27 23:23:00,71.8,58.5,28.97,SW,225,0.0,0.0,63,0.00,,---,0.00,VWS V13.01,2013-08-28 03:23:00,
2013-08-27 23:28:00,71.8,58.5,28.97,SW,225,0.0,0.0,63,0.00,,---,0.00,VWS V13.01,2013-08-28 03:28:00,
2013-08-27 23:33:00,71.8,58.5,28.97,SW,225,0.0,0.0,63,0.00,,---,0.00,VWS V13.01,2013-08-28 03:33:00,
2013-08-27 23:38:00,71.8,58.1,28.97,SW,225,0.0,0.0,62,0.00,,---,0.00,VWS V13.01,2013-08-28 03:38:00,
2013-08-27 23:43:00,71.8,58.5,28.97,SW,225,0.0,0.0,63,0.00,,---,0.00,VWS V13.01,2013-08-28 03:43:00,
2013-08-27 23:48:00,71.8,58.5,28.97,SW,225,0.0,0.0,63,0.00,,---,0.00,VWS V13.01,2013-08-28 03:48:00,
2013-08-27 23:53:00,71.8,58.5,28.97,SW,225,0.0,0.0,63,0.00,,---,0.00,VWS V13.01,2013-08-28 03:53:00,
2013-08-27 23:58:00,71.8,58.5,28.97,SW,225,0.0,0.0,63,0.00,,---,0.00,VWS V13.01,2013-08-28 03:58:00,